Time;durP1;ratioP1;P1;durP2;ratioP2;P2;SDS_P1;SDS_P2;PMS_P1;PMS_P2;Temp;Humidity;BMP_temperature;BMP_pressure;BME280_temperature;BME280_humidity;BME280_pressure;Samples;Min_cycle;Max_cycle;Signal;HPM_P1;HPM_P2
2021/08/22 00:01:56;;;;;;;2.57;2.37;;;;;;;17.90;66.87;101782.03;2617827;54;20131;-76
2021/08/22 00:04:21;;;;;;;2.83;2.53;;;;;;;17.78;67.17;101781.97;2617995;46;20218;-76
2021/08/22 00:06:47;;;;;;;3.63;2.70;;;;;;;18.04;66.30;101778.63;2617848;54;20235;-77
2021/08/22 00:09:12;;;;;;;3.33;2.40;;;;;;;18.15;66.07;101773.50;2617527;54;20714;-77
2021/08/22 00:11:37;;;;;;;3.83;2.50;;;;;;;17.97;66.83;101776.03;2618208;47;20260;-77
2021/08/22 00:14:02;;;;;;;2.40;2.20;;;;;;;17.88;67.07;101779.44;2617485;54;20178;-77
2021/08/22 00:16:28;;;;;;;4.23;2.20;;;;;;;17.75;67.89;101787.13;2617324;54;20157;-76
2021/08/22 00:18:53;;;;;;;2.30;2.10;;;;;;;17.75;67.20;101784.53;2618050;54;20170;-78
2021/08/22 00:21:18;;;;;;;3.00;2.03;;;;;;;17.80;67.25;101788.91;2618578;39;20649;-77
2021/08/22 00:23:44;;;;;;;2.20;2.00;;;;;;;17.87;67.09;101774.25;2618059;54;20172;-77
2021/08/22 00:26:09;;;;;;;2.97;2.43;;;;;;;17.88;66.99;101784.63;2618044;54;20123;-76
2021/08/22 00:28:34;;;;;;;2.17;1.97;;;;;;;17.93;66.42;101769.97;2618289;39;20580;-77
2021/08/22 00:30:59;;;;;;;2.33;2.13;;;;;;;17.99;66.38;101774.28;2618266;46;20175;-77
2021/08/22 00:33:25;;;;;;;3.40;2.20;;;;;;;18.05;65.73;101770.00;2617794;54;20135;-76
2021/08/22 00:35:50;;;;;;;2.50;2.10;;;;;;;17.94;65.79;101765.63;2617892;54;20965;-76
2021/08/22 00:38:15;;;;;;;2.83;2.07;;;;;;;17.84;66.16;101762.16;2618069;46;20135;-76
2021/08/22 00:40:40;;;;;;;2.10;1.90;;;;;;;18.03;65.67;101760.47;2618062;54;20155;-77
2021/08/22 00:43:07;;;;;;;3.07;1.70;;;;;;;17.87;66.01;101763.88;2617845;46;20132;-76
2021/08/22 00:45:33;;;;;;;2.70;1.97;;;;;;;17.97;66.11;101757.88;2618438;54;20147;-76
2021/08/22 00:47:58;;;;;;;1.73;1.63;;;;;;;17.90;66.21;101758.69;2618185;54;20262;-76
2021/08/22 00:50:24;;;;;;;2.40;2.00;;;;;;;17.96;66.09;101753.56;2617932;54;20203;-77
2021/08/22 00:52:50;;;;;;;3.50;2.20;;;;;;;17.96;66.03;101744.03;2618494;54;20143;-77
2021/08/22 00:55:16;;;;;;;3.60;2.20;;;;;;;18.02;66.12;101743.19;2617994;54;20243;-77
2021/08/22 00:57:42;;;;;;;1.97;1.77;;;;;;;17.83;66.53;101747.44;2617582;54;20151;-77
2021/08/22 01:00:09;;;;;;;2.20;2.00;;;;;;;17.96;65.91;101746.63;2617719;47;20168;-77
2021/08/22 01:02:42;;;;;;;3.37;1.80;;;;;;;17.90;65.81;101743.16;2617812;39;20816;-76
2021/08/22 01:05:27;;;;;;;1.90;1.70;;;;;;;17.97;66.11;101742.31;2617459;54;20116;-77
2021/08/22 01:08:02;;;;;;;2.80;2.10;;;;;;;17.90;65.88;101740.56;2617333;39;20755;-76
2021/08/22 01:10:29;;;;;;;2.93;1.97;;;;;;;18.06;65.11;101740.59;2617152;54;20147;-79
2021/08/22 01:13:00;;;;;;;4.00;2.00;;;;;;;17.85;65.77;101735.38;2617506;54;20676;-78
2021/08/22 01:15:27;;;;;;;2.33;1.73;;;;;;;17.82;66.26;101739.69;2617265;54;20139;-76
2021/08/22 01:17:53;;;;;;;1.90;1.80;;;;;;;17.71;65.78;101731.84;2617626;54;20151;-76
2021/08/22 01:20:42;;;;;;;3.27;2.23;;;;;;;17.73;66.09;101735.31;2617530;54;20139;-76
2021/08/22 01:23:08;;;;;;;2.10;1.90;;;;;;;17.68;65.80;101725.78;2617266;54;20294;-77
2021/08/22 01:25:39;;;;;;;1.60;1.50;;;;;;;17.56;66.51;101721.41;2617440;54;20182;-77
2021/08/22 01:28:06;;;;;;;1.80;1.70;;;;;;;17.56;66.38;101724.00;2617567;54;20179;-77
2021/08/22 01:30:38;;;;;;;2.27;2.00;;;;;;;17.70;65.85;101717.16;2617045;54;20161;-76
2021/08/22 01:33:08;;;;;;;2.73;1.80;;;;;;;17.82;65.22;101717.19;2617550;54;20247;-77
2021/08/22 01:35:33;;;;;;;1.80;1.70;;;;;;;17.84;65.97;101709.44;2617599;54;20993;-77
2021/08/22 01:37:59;;;;;;;2.20;2.00;;;;;;;17.94;65.02;101704.31;2616879;47;20189;-77
2021/08/22 01:40:25;;;;;;;2.57;1.83;;;;;;;17.82;65.76;101704.25;2617664;31;20707;-75
2021/08/22 01:42:51;;;;;;;2.60;2.00;;;;;;;18.04;64.71;101700.00;2617382;54;20123;-77
2021/08/22 01:45:19;;;;;;;2.70;2.13;;;;;;;17.86;65.48;101693.03;2617173;54;20238;-75
2021/08/22 01:47:48;;;;;;;2.20;1.93;;;;;;;17.78;65.17;101696.47;2617290;54;20719;-77
2021/08/22 01:50:19;;;;;;;1.80;1.67;;;;;;;17.68;65.67;101692.13;2617388;54;20231;-76
2021/08/22 01:52:46;;;;;;;2.37;2.00;;;;;;;17.65;66.12;101700.75;2617534;54;20176;-76
2021/08/22 01:55:11;;;;;;;2.43;2.10;;;;;;;17.66;65.57;101688.63;2617405;54;20162;-75
2021/08/22 12:08:35;;;;;;;;;;;;;;;18.69;73.39;101724.34;2221445;46;2317730867;31
2021/08/22 12:11:11;;;;;;;3.00;2.60;;;;;;;18.76;73.80;101719.19;2615095;54;20315;-79
2021/08/22 12:13:40;;;;;;;3.47;3.10;;;;;;;18.83;74.05;101727.84;2616196;54;20146;-80
2021/08/22 12:16:21;;;;;;;3.53;3.23;;;;;;;18.91;74.51;101720.88;2617402;39;20519;-78
2021/08/22 12:18:46;;;;;;;3.20;2.73;;;;;;;18.86;74.03;101720.91;2617064;47;20694;-78
2021/08/22 12:21:14;;;;;;;7.00;3.50;;;;;;;18.98;74.15;101714.84;2617266;54;20135;-76
2021/08/22 12:23:41;;;;;;;3.50;3.07;;;;;;;18.97;74.43;101719.16;2617111;54;20123;-77
2021/08/22 12:26:17;;;;;;;4.00;3.23;;;;;;;18.95;74.21;101713.13;2617540;54;20124;-74
2021/08/22 12:28:43;;;;;;;5.87;3.17;;;;;;;19.02;72.46;101716.56;2616998;54;20123;-79
2021/08/22 12:31:11;;;;;;;2.93;2.53;;;;;;;19.09;72.95;101719.16;2618006;31;20610;-79
2021/08/22 12:33:39;;;;;;;3.60;3.20;;;;;;;19.22;72.91;101720.00;2617041;54;20130;-78
2021/08/22 12:36:12;;;;;;;3.00;2.60;;;;;;;19.09;72.82;101724.34;2617213;54;20152;-76
2021/08/22 12:38:52;;;;;;;2.90;2.40;;;;;;;19.14;71.33;101727.81;2617050;54;20215;-79
2021/08/22 12:41:46;;;;;;;3.73;2.60;;;;;;;19.12;71.85;101731.28;2617382;47;20189;-78
2021/08/22 12:44:22;;;;;;;3.53;2.77;;;;;;;18.87;72.11;101727.81;2618171;39;20557;-76
2021/08/22 12:46:52;;;;;;;2.50;2.27;;;;;;;18.82;70.94;101734.75;2616888;47;20147;-78
2021/08/22 12:49:18;;;;;;;2.80;2.53;;;;;;;18.68;71.43;101728.69;2617071;54;20151;-77
2021/08/22 12:51:53;;;;;;;2.70;2.40;;;;;;;18.56;72.66;101733.00;2616907;54;20143;-76
2021/08/22 12:54:20;;;;;;;2.73;2.20;;;;;;;18.59;72.51;101733.88;2616734;54;20134;-79
2021/08/22 12:56:46;;;;;;;2.73;2.00;;;;;;;18.57;72.76;101732.97;2654201;36;20609;-77
2021/08/22 12:59:12;;;;;;;2.57;2.30;;;;;;;18.53;73.53;101733.88;2634465;36;20205;-78
2021/08/22 13:01:37;;;;;;;2.93;2.63;;;;;;;18.58;73.46;101733.84;2617566;31;20639;-78
2021/08/22 13:04:04;;;;;;;2.80;2.50;;;;;;;18.68;72.86;101733.88;2617116;54;20120;-78
2021/08/22 13:06:29;;;;;;;2.90;2.60;;;;;;;18.61;73.58;101734.72;2617238;54;20124;-77
2021/08/22 13:08:55;;;;;;;3.93;2.23;;;;;;;18.59;73.29;101738.19;2616817;39;20539;-76
2021/08/22 13:11:21;;;;;;;5.33;3.03;;;;;;;18.63;74.43;101738.19;2617107;54;20145;-78
2021/08/22 13:13:47;;;;;;;3.53;2.63;;;;;;;18.62;74.52;101736.47;2617056;54;20135;-79
2021/08/22 13:16:13;;;;;;;3.13;2.70;;;;;;;18.71;74.00;101738.19;2606000;51;20159;-78
2021/08/22 13:18:38;;;;;;;3.37;2.37;;;;;;;18.65;74.25;101735.63;2612194;39;20557;-78
2021/08/22 13:21:06;;;;;;;2.60;2.40;;;;;;;18.80;74.48;101741.66;2616784;36;20270;-79
2021/08/22 13:23:33;;;;;;;3.03;2.73;;;;;;;18.69;74.58;101735.59;2617519;39;20560;-77
2021/08/22 13:26:00;;;;;;;3.47;2.60;;;;;;;18.73;74.69;101726.94;2617329;54;20136;-77
2021/08/22 13:28:26;;;;;;;3.40;3.10;;;;;;;18.85;74.22;101724.38;2617326;54;20119;-78
2021/08/22 13:30:52;;;;;;;3.60;3.07;;;;;;;18.69;73.89;101737.31;2617502;54;20172;-78
2021/08/22 13:33:17;;;;;;;3.40;3.10;;;;;;;18.78;74.08;101740.78;2617465;54;20120;-78
2021/08/22 13:35:43;;;;;;;3.23;2.67;;;;;;;18.72;73.87;101743.41;2616345;47;20641;-78
2021/08/22 13:38:08;;;;;;;3.23;2.90;;;;;;;18.89;73.09;101738.22;2617371;47;20143;-77
2021/08/22 13:40:34;;;;;;;3.73;2.83;;;;;;;18.73;72.87;101734.75;2617497;46;20147;-78
2021/08/22 13:42:59;;;;;;;3.37;2.93;;;;;;;18.77;73.40;101745.97;2617110;54;20127;-78
2021/08/22 13:45:25;;;;;;;3.37;2.73;;;;;;;18.76;73.28;101741.66;2616904;46;20147;-79
2021/08/22 13:47:50;;;;;;;2.60;2.37;;;;;;;18.76;73.08;101741.66;2616454;47;20164;-78
2021/08/22 13:50:15;;;;;;;3.00;2.70;;;;;;;18.77;72.67;101744.25;2617469;54;20679;-78
2021/08/22 13:52:41;;;;;;;3.50;2.63;;;;;;;18.80;71.91;101740.81;2617037;54;20143;-77
2021/08/22 13:55:08;;;;;;;4.23;2.77;;;;;;;18.68;71.97;101738.19;2617137;54;20150;-77
2021/08/22 13:57:34;;;;;;;3.40;2.67;;;;;;;18.63;72.91;101740.78;2641496;36;20199;-76
2021/08/22 13:59:59;;;;;;;3.13;2.70;;;;;;;18.57;73.68;101740.75;2616950;54;20322;-77
2021/08/22 14:02:24;;;;;;;3.80;3.07;;;;;;;18.66;73.37;101732.16;2617109;54;20211;-77
2021/08/22 14:04:50;;;;;;;5.47;3.10;;;;;;;18.87;73.23;101733.00;2616515;54;20772;-78
2021/08/22 14:07:15;;;;;;;4.27;3.13;;;;;;;18.75;72.60;101737.34;2617166;39;20452;-78
2021/08/22 14:09:40;;;;;;;3.00;2.60;;;;;;;18.69;72.73;101745.97;2616936;54;20685;-77
2021/08/22 14:12:06;;;;;;;3.70;3.03;;;;;;;18.59;73.27;101743.38;2603567;46;20919;-77
2021/08/22 14:14:31;;;;;;;3.23;2.47;;;;;;;18.49;73.30;101741.63;2616559;54;20159;-75
2021/08/22 14:16:56;;;;;;;3.23;2.80;;;;;;;18.52;73.91;101732.13;2616976;31;20606;-77
2021/08/22 14:19:22;;;;;;;3.13;2.83;;;;;;;18.48;73.89;101740.78;2616989;54;20135;-76
2021/08/22 14:21:47;;;;;;;4.80;3.50;;;;;;;18.60;74.24;101732.16;2616688;54;20144;-77
2021/08/22 14:24:12;;;;;;;3.70;3.10;;;;;;;18.60;73.94;101732.16;2616950;47;20151;-74
2021/08/22 14:26:37;;;;;;;4.33;3.70;;;;;;;18.68;73.28;101726.09;2616687;54;20147;-76
2021/08/22 14:31:31;;;;;;;4.30;3.90;;;;;;;18.85;72.87;101729.56;2621483;54;20721;-79
2021/08/22 14:33:56;;;;;;;4.47;3.37;;;;;;;18.73;71.86;101715.69;2620949;54;20139;-80
2021/08/22 14:36:22;;;;;;;5.03;3.53;;;;;;;18.66;72.86;101721.75;2620699;47;20131;-79
2021/08/22 14:38:47;;;;;;;3.00;2.40;;;;;;;18.59;72.99;101728.69;2621471;46;20155;-80
2021/08/22 14:41:12;;;;;;;2.87;2.57;;;;;;;18.56;73.42;101730.41;2622274;39;20538;-79
2021/08/22 14:43:38;;;;;;;4.07;2.97;;;;;;;18.57;73.99;101724.34;2622373;46;20134;-81
2021/08/22 14:46:03;;;;;;;5.30;3.10;;;;;;;18.48;74.01;101727.81;2622492;46;20535;-79
2021/08/22 14:48:28;;;;;;;3.07;2.77;;;;;;;18.49;74.34;101729.53;2619866;39;20656;-80
2021/08/22 14:50:53;;;;;;;5.27;3.13;;;;;;;18.60;74.20;101735.59;2619388;54;20135;-80
2021/08/22 14:53:20;;;;;;;4.00;2.83;;;;;;;18.48;74.81;101740.78;2618965;54;20219;-79
2021/08/22 14:55:46;;;;;;;3.80;3.20;;;;;;;18.44;74.59;101745.94;2619653;54;20119;-78
2021/08/22 14:58:12;;;;;;;3.33;3.07;;;;;;;18.47;74.90;101748.56;2619260;54;20155;-79
2021/08/22 15:00:37;;;;;;;3.53;2.67;;;;;;;18.41;74.76;101743.34;2620181;54;20139;-79
2021/08/22 15:03:04;;;;;;;4.43;3.50;;;;;;;18.56;74.59;101745.97;2620996;54;20143;-78
2021/08/22 15:05:29;;;;;;;3.47;3.17;;;;;;;18.49;74.11;101741.63;2621118;39;20563;-79
2021/08/22 15:07:55;;;;;;;4.20;3.10;;;;;;;18.36;74.71;101743.34;2620695;54;20151;-77
2021/08/22 15:10:21;;;;;;;4.73;3.00;;;;;;;18.33;74.61;101742.47;2619443;54;20759;-79
2021/08/22 15:12:47;;;;;;;4.03;3.20;;;;;;;18.27;75.04;101751.06;2618714;47;20128;-78
2021/08/22 15:15:12;;;;;;;3.80;3.00;;;;;;;18.30;74.89;101747.59;2618682;54;20633;-77
2021/08/22 15:17:38;;;;;;;5.37;3.80;;;;;;;18.23;75.79;101748.47;2617890;54;20159;-79
2021/08/22 15:20:04;;;;;;;3.73;2.93;;;;;;;18.12;76.44;101748.44;2617379;47;20526;-78
2021/08/22 15:22:30;;;;;;;3.60;3.03;;;;;;;18.14;76.08;101745.84;2618437;54;20139;-78
2021/08/22 15:24:55;;;;;;;3.47;2.60;;;;;;;18.15;75.93;101748.41;2619100;31;20627;-79
2021/08/22 15:27:21;;;;;;;4.87;3.03;;;;;;;18.19;75.64;101757.94;2618996;54;20254;-77
2021/08/22 15:29:46;;;;;;;4.33;2.93;;;;;;;18.17;76.08;101744.13;2620426;39;20551;-80
2021/08/22 15:32:11;;;;;;;6.07;3.57;;;;;;;18.22;76.03;101739.81;2619589;54;20681;-79
2021/08/22 15:34:37;;;;;;;4.23;3.30;;;;;;;18.36;76.01;101739.88;2618562;54;20159;-78
2021/08/22 15:37:04;;;;;;;3.70;3.30;;;;;;;18.29;76.61;101735.50;2618196;54;20138;-78
2021/08/22 15:39:30;;;;;;;2.90;2.60;;;;;;;18.31;76.40;101729.47;2618759;54;20138;-80
2021/08/22 15:41:56;;;;;;;5.47;3.10;;;;;;;18.45;76.46;101729.50;2617695;54;20131;-79
2021/08/22 15:44:21;;;;;;;3.93;2.83;;;;;;;18.64;75.05;101726.94;2619397;54;20131;-80
2021/08/22 15:46:47;;;;;;;4.63;3.30;;;;;;;18.67;74.67;101720.88;2620081;54;20132;-80
2021/08/22 15:49:12;;;;;;;3.20;2.90;;;;;;;18.62;74.80;101718.31;2620137;54;20151;-79
2021/08/22 15:51:38;;;;;;;3.17;2.87;;;;;;;18.65;74.04;101725.22;2619705;54;20134;-79
2021/08/22 15:54:07;;;;;;;4.10;3.33;;;;;;;18.51;74.85;101726.94;2620042;54;20127;-80
2021/08/22 15:56:33;;;;;;;3.20;2.90;;;;;;;18.56;75.02;101730.41;2619152;47;20144;-80
2021/08/22 15:58:59;;;;;;;3.63;3.27;;;;;;;18.50;75.00;101725.19;2619341;54;20638;-79
2021/08/22 16:01:24;;;;;;;2.97;2.67;;;;;;;18.44;75.09;101720.00;2619407;54;20127;-80
2021/08/22 16:03:49;;;;;;;5.70;3.67;;;;;;;18.65;75.37;101712.25;2619565;54;20146;-79
2021/08/22 16:06:15;;;;;;;5.53;3.37;;;;;;;18.48;74.82;101719.16;2619177;54;20219;-80
2021/08/22 16:08:40;;;;;;;5.10;3.50;;;;;;;18.58;74.49;101718.28;2619788;47;20191;-79
2021/08/22 16:11:05;;;;;;;3.40;2.97;;;;;;;18.37;75.41;101715.69;2619088;54;20138;-80
2021/08/22 16:13:30;;;;;;;3.43;3.00;;;;;;;18.29;75.63;101712.16;2619963;47;20250;-77
2021/08/22 16:15:56;;;;;;;3.70;3.30;;;;;;;18.36;75.10;101714.81;2620015;54;20168;-80
2021/08/22 16:18:21;;;;;;;4.13;2.80;;;;;;;18.26;75.70;101713.03;2619425;54;20155;-80
2021/08/22 16:20:46;;;;;;;6.33;3.53;;;;;;;18.26;75.90;101719.94;2618502;54;20151;-80
2021/08/22 16:23:12;;;;;;;3.73;2.93;;;;;;;18.44;75.32;101707.91;2622297;39;20570;-81
2021/08/22 16:25:38;;;;;;;4.67;3.20;;;;;;;18.54;74.44;101711.38;2618786;54;20147;-80
2021/08/22 16:28:04;;;;;;;3.33;2.80;;;;;;;18.25;75.51;101711.31;2620835;39;20568;-79
2021/08/22 16:30:29;;;;;;;3.27;2.90;;;;;;;18.16;75.86;101710.41;2620426;54;20170;-78
2021/08/22 16:32:54;;;;;;;3.93;3.13;;;;;;;18.13;76.13;101710.38;2619890;47;20139;-79
2021/08/22 16:35:20;;;;;;;3.90;3.27;;;;;;;18.19;76.04;101719.06;2619152;54;20143;-80
2021/08/22 16:37:45;;;;;;;4.00;3.07;;;;;;;18.30;75.34;101724.25;2623974;54;20147;-82
2021/08/22 16:40:11;;;;;;;4.20;2.83;;;;;;;18.19;75.96;101725.97;2620731;47;20135;-80
2021/08/22 16:42:37;;;;;;;3.93;3.53;;;;;;;18.26;75.46;101725.13;2623131;54;20240;-80
2021/08/22 16:45:07;;;;;;;3.50;3.20;;;;;;;18.25;75.59;101726.88;2623639;47;20223;-79
2021/08/22 16:47:35;;;;;;;3.43;3.10;;;;;;;18.05;76.32;101725.91;2622835;54;20191;-80
2021/08/22 16:50:00;;;;;;;6.20;3.50;;;;;;;17.93;76.67;101730.22;2623881;54;20235;-80
2021/08/22 16:52:27;;;;;;;4.53;2.93;;;;;;;18.14;76.14;101738.91;2624555;39;20624;-79
2021/08/22 16:54:53;;;;;;;6.23;3.67;;;;;;;17.96;76.32;101740.59;2621447;47;20130;-80
2021/08/22 16:57:19;;;;;;;3.37;3.07;;;;;;;17.79;77.23;101742.25;2621887;54;20135;-81
2021/08/22 16:59:44;;;;;;;4.30;3.30;;;;;;;17.77;77.18;101743.97;2622348;46;20136;-78
2021/08/22 17:02:09;;;;;;;3.63;2.80;;;;;;;17.69;77.36;101740.47;2622610;54;20242;-77
2021/08/22 17:04:35;;;;;;;6.33;2.53;;;;;;;17.63;77.92;101741.31;2621720;54;20131;-78
2021/08/22 17:07:00;;;;;;;3.27;2.77;;;;;;;17.64;77.64;101747.38;2623056;54;20136;-78
2021/08/22 17:09:25;;;;;;;3.87;3.43;;;;;;;17.63;77.32;101758.56;2625773;39;20768;-80
2021/08/22 17:11:51;;;;;;;3.53;2.97;;;;;;;17.67;77.54;101747.34;2624801;54;20127;-80
2021/08/22 17:14:17;;;;;;;4.23;2.70;;;;;;;17.51;78.44;101755.91;2623082;54;20136;-79
2021/08/22 17:16:42;;;;;;;4.17;3.03;;;;;;;17.50;78.12;101751.59;2622856;54;20657;-79
2021/08/22 17:19:07;;;;;;;4.87;3.70;;;;;;;17.54;78.30;101754.19;2623486;54;20174;-79
2021/08/22 17:21:33;;;;;;;6.10;2.83;;;;;;;17.49;78.54;101758.50;2622577;47;20291;-81
2021/08/22 17:23:59;;;;;;;4.83;3.50;;;;;;;17.62;77.88;101754.25;2622197;47;20156;-77
2021/08/22 17:26:24;;;;;;;4.50;3.00;;;;;;;17.66;77.46;101756.00;2641164;36;20135;-78
2021/08/22 17:28:49;;;;;;;5.03;3.37;;;;;;;17.51;77.79;101753.31;2622724;46;20163;-79
2021/08/22 17:31:14;;;;;;;3.23;2.93;;;;;;;17.47;78.10;101756.75;2623216;47;20138;-79
2021/08/22 17:33:40;;;;;;;3.30;3.00;;;;;;;17.51;77.85;101756.78;2622912;54;20191;-79
2021/08/22 17:36:05;;;;;;;2.63;2.27;;;;;;;17.60;77.59;101762.00;2622633;54;20656;-78
2021/08/22 17:38:30;;;;;;;3.13;2.83;;;;;;;17.50;77.59;101756.78;2625250;46;20163;-79
2021/08/22 17:40:55;;;;;;;2.80;2.40;;;;;;;17.43;78.44;101755.88;2622234;54;20560;-77
2021/08/22 17:43:21;;;;;;;4.10;2.90;;;;;;;17.34;78.67;101762.66;2622177;54;20131;-79
2021/08/22 17:45:46;;;;;;;3.63;3.03;;;;;;;17.39;78.08;101759.28;2622601;54;20136;-78
2021/08/22 17:48:11;;;;;;;4.70;3.07;;;;;;;17.38;78.60;101759.25;2622705;54;20131;-77
2021/08/22 17:50:37;;;;;;;4.57;3.30;;;;;;;17.32;78.48;101767.00;2622733;54;20142;-80
2021/08/22 17:53:02;;;;;;;3.03;2.73;;;;;;;17.42;78.22;101761.03;2623034;54;20184;-77
2021/08/22 17:55:28;;;;;;;3.77;3.20;;;;;;;17.44;78.23;101773.13;2624771;39;20582;-79
2021/08/22 17:57:53;;;;;;;3.13;2.73;;;;;;;17.28;78.46;101767.81;2623133;54;20147;-78
2021/08/22 18:00:19;;;;;;;3.47;2.97;;;;;;;17.38;78.28;101772.19;2623536;46;20138;-79
2021/08/22 18:02:44;;;;;;;3.23;2.53;;;;;;;17.35;78.05;101766.97;2623085;54;20132;-79
2021/08/22 18:05:11;;;;;;;5.03;3.30;;;;;;;17.38;77.75;101775.66;2622479;47;20135;-77
2021/08/22 18:07:38;;;;;;;5.77;3.17;;;;;;;17.33;78.20;101784.25;2622326;47;20171;-78
2021/08/22 18:10:04;;;;;;;3.13;2.67;;;;;;;17.25;78.15;101786.78;2623018;54;20131;-78
2021/08/22 18:12:29;;;;;;;5.20;2.90;;;;;;;17.22;78.57;101784.16;2623310;54;20149;-78
2021/08/22 18:14:54;;;;;;;3.53;2.80;;;;;;;17.10;78.80;101791.84;2624054;46;20184;-79
2021/08/22 18:17:22;;;;;;;4.03;2.90;;;;;;;17.13;78.81;101793.59;2623331;54;20163;-79
2021/08/22 18:19:48;;;;;;;3.53;3.23;;;;;;;17.25;78.54;101796.25;2624628;54;20139;-79
2021/08/22 18:22:13;;;;;;;4.57;2.97;;;;;;;17.28;78.05;101801.47;2623780;47;20673;-78
2021/08/22 18:24:39;;;;;;;5.80;2.80;;;;;;;17.19;78.62;101807.47;2623167;54;20145;-78
2021/08/22 18:27:05;;;;;;;3.53;3.07;;;;;;;17.19;78.41;101814.34;2622664;54;20136;-80
2021/08/22 18:29:30;;;;;;;5.57;2.93;;;;;;;17.05;78.66;101815.97;2623312;54;20664;-79
2021/08/22 18:31:56;;;;;;;4.33;2.60;;;;;;;17.08;78.58;101818.59;2623608;54;20136;-80
2021/08/22 18:34:21;;;;;;;3.13;2.73;;;;;;;17.21;77.94;101823.84;2622488;47;20120;-78
2021/08/22 18:36:47;;;;;;;2.97;2.60;;;;;;;17.18;78.37;101822.97;2623247;54;20132;-78
2021/08/22 18:39:13;;;;;;;2.83;2.03;;;;;;;17.01;78.54;101827.13;2623977;46;20191;-79
2021/08/22 18:41:40;;;;;;;3.93;2.83;;;;;;;17.05;78.90;101834.06;2624181;46;20138;-78
2021/08/22 18:44:05;;;;;;;3.17;2.70;;;;;;;17.10;78.28;101830.69;2623771;54;20752;-80
2021/08/22 18:46:31;;;;;;;4.50;3.07;;;;;;;17.02;78.49;101842.69;2623252;54;20151;-79
2021/08/22 18:48:57;;;;;;;2.87;2.20;;;;;;;16.96;78.97;101836.56;2623770;39;20627;-78
2021/08/22 18:51:22;;;;;;;5.27;3.83;;;;;;;17.26;77.22;101842.88;2623182;47;20136;-77
2021/08/22 18:53:47;;;;;;;3.33;2.57;;;;;;;17.07;77.64;101843.59;2623605;54;20170;-79
2021/08/22 18:56:14;;;;;;;5.63;3.40;;;;;;;16.97;78.51;101853.84;2623585;54;20160;-78
2021/08/22 18:58:41;;;;;;;5.73;3.20;;;;;;;17.02;78.02;101844.38;2622510;54;20721;-80
2021/08/22 19:01:07;;;;;;;3.57;2.87;;;;;;;16.91;77.88;101859.81;2623123;54;20136;-80
2021/08/22 19:03:32;;;;;;;3.83;2.80;;;;;;;16.86;78.55;101866.66;2623406;54;20136;-77
2021/08/22 19:05:59;;;;;;;3.73;2.87;;;;;;;16.86;78.26;101868.41;2622694;47;20143;-79
2021/08/22 19:08:24;;;;;;;4.63;3.50;;;;;;;16.90;78.35;101873.59;2622340;51;20162;-77
2021/08/22 19:10:51;;;;;;;3.53;2.83;;;;;;;16.90;78.49;101876.19;2622739;54;20134;-78
2021/08/22 19:13:16;;;;;;;3.50;2.50;;;;;;;16.84;78.52;101886.47;2623437;54;20225;-78
2021/08/22 19:15:42;;;;;;;3.63;3.10;;;;;;;16.83;79.26;101878.69;2640825;36;20191;-79
2021/08/22 19:18:07;;;;;;;4.57;2.60;;;;;;;16.78;79.12;101885.53;2622948;54;20143;-79
2021/08/22 19:20:34;;;;;;;3.23;2.70;;;;;;;16.74;79.44;101892.41;2622820;39;20813;-78
2021/08/22 19:22:59;;;;;;;3.63;2.33;;;;;;;16.69;79.41;101888.91;2623476;39;20601;-79
2021/08/22 19:25:25;;;;;;;2.80;2.50;;;;;;;16.67;79.80;101893.19;2623380;54;20135;-80
2021/08/22 19:27:53;;;;;;;3.33;3.03;;;;;;;16.71;79.59;101894.09;2624039;39;20578;-79
2021/08/22 19:30:18;;;;;;;3.33;3.03;;;;;;;16.74;79.73;101899.28;2623503;54;20135;-77
2021/08/22 19:32:44;;;;;;;3.93;3.30;;;;;;;16.72;79.35;101899.28;2623048;47;20171;-78
2021/08/22 19:35:09;;;;;;;4.00;3.40;;;;;;;16.79;79.72;101900.22;2623125;54;20167;-78
2021/08/22 19:37:35;;;;;;;5.10;3.00;;;;;;;16.73;79.51;101898.44;2624300;54;20203;-79
2021/08/22 19:40:00;;;;;;;4.90;3.67;;;;;;;16.77;79.78;101901.94;2623016;47;20657;-80
2021/08/22 19:42:25;;;;;;;3.57;2.97;;;;;;;16.71;79.66;101897.53;2623755;47;20179;-78
2021/08/22 19:44:51;;;;;;;4.90;3.60;;;;;;;16.70;79.69;101903.56;2624612;54;20151;-79
2021/08/22 19:47:16;;;;;;;5.23;3.13;;;;;;;16.74;79.14;101907.06;2623212;54;20127;-79
2021/08/22 19:49:41;;;;;;;3.57;3.07;;;;;;;16.77;79.42;101899.34;2623841;54;20147;-79
2021/08/22 19:52:07;;;;;;;5.57;3.30;;;;;;;16.76;79.75;101903.63;2623729;54;20158;-79
2021/08/22 19:54:33;;;;;;;4.10;2.67;;;;;;;16.72;79.78;101908.78;2623921;54;20119;-80
2021/08/22 19:56:58;;;;;;;4.50;2.57;;;;;;;16.72;79.89;101914.78;2623605;54;20151;-79
2021/08/22 19:59:23;;;;;;;3.17;2.30;;;;;;;16.68;80.14;101909.59;2623570;54;20147;-79
2021/08/22 20:01:49;;;;;;;4.27;3.10;;;;;;;16.70;80.11;101915.63;2623495;47;20127;-77
2021/08/22 20:04:14;;;;;;;2.83;2.57;;;;;;;16.65;80.23;101918.19;2624118;54;20147;-77
2021/08/22 20:06:39;;;;;;;2.17;1.97;;;;;;;16.61;80.35;101918.09;2624115;54;20136;-79
2021/08/22 20:09:05;;;;;;;2.10;1.90;;;;;;;16.61;80.64;101918.09;2624156;47;20637;-79
2021/08/22 20:11:30;;;;;;;3.07;2.40;;;;;;;16.63;80.17;101916.44;2623617;47;20135;-79
2021/08/22 20:13:55;;;;;;;4.43;3.60;;;;;;;16.58;80.61;101926.69;2623599;47;20255;-79
2021/08/22 20:16:21;;;;;;;3.33;2.40;;;;;;;16.57;80.14;101924.13;2624395;46;20139;-79
2021/08/22 20:18:47;;;;;;;3.77;3.00;;;;;;;16.55;80.54;101923.22;2623885;54;20170;-80
2021/08/22 20:21:12;;;;;;;4.50;3.77;;;;;;;16.67;80.43;101926.81;2623375;54;20160;-79
2021/08/22 20:23:37;;;;;;;3.00;2.40;;;;;;;16.67;80.24;101929.41;2623435;47;20277;-80
2021/08/22 20:26:03;;;;;;;3.30;2.73;;;;;;;16.61;80.22;101931.03;2623892;54;20160;-78
2021/08/22 20:28:28;;;;;;;3.27;2.97;;;;;;;16.64;80.12;101933.66;2622441;54;20151;-79
2021/08/22 20:30:53;;;;;;;3.13;2.73;;;;;;;16.58;80.88;101931.88;2624419;47;20132;-80
2021/08/22 20:33:19;;;;;;;3.77;2.67;;;;;;;16.59;80.59;101936.22;2625942;47;20155;-79
2021/08/22 20:35:46;;;;;;;2.60;2.10;;;;;;;16.57;80.72;101940.47;2626349;47;20191;-81
2021/08/22 20:38:14;;;;;;;3.70;2.87;;;;;;;16.57;80.81;101939.63;2626093;47;20174;-79
2021/08/22 20:40:39;;;;;;;4.60;3.10;;;;;;;16.67;80.51;101944.06;2626053;47;20170;-79
2021/08/22 20:43:05;;;;;;;4.27;3.20;;;;;;;16.67;80.29;101941.47;2626502;47;20139;-81
2021/08/22 20:45:32;;;;;;;4.23;3.13;;;;;;;16.67;80.10;101942.34;2625834;47;20158;-80
2021/08/22 20:48:01;;;;;;;6.83;3.47;;;;;;;16.70;80.31;101947.56;2625661;54;20152;-79
2021/08/22 20:50:27;;;;;;;4.10;2.87;;;;;;;16.70;79.66;101944.97;2626818;39;20629;-79
2021/08/22 20:52:53;;;;;;;4.37;3.23;;;;;;;16.77;79.53;101946.75;2626085;47;20132;-79
2021/08/22 20:55:18;;;;;;;6.60;3.17;;;;;;;16.69;79.63;101937.19;2626362;46;20134;-80
2021/08/22 20:57:44;;;;;;;6.27;3.23;;;;;;;16.71;79.40;101943.25;2626648;47;20182;-80
2021/08/22 21:00:10;;;;;;;5.43;3.70;;;;;;;16.83;79.29;101948.56;2627528;47;20159;-81
2021/08/22 21:02:39;;;;;;;4.13;3.00;;;;;;;16.73;79.40;101942.44;2627633;54;20166;-80
2021/08/22 21:05:05;;;;;;;4.83;3.37;;;;;;;16.71;79.58;101949.28;2626897;54;20127;-78
2021/08/22 21:07:30;;;;;;;4.33;3.00;;;;;;;16.73;79.55;101949.31;2627321;54;20142;-78
2021/08/22 21:09:55;;;;;;;3.90;2.77;;;;;;;16.76;79.06;101946.78;2626802;54;20163;-78
2021/08/22 21:12:21;;;;;;;3.57;3.00;;;;;;;16.81;79.34;101956.28;2627075;54;20140;-80
2021/08/22 21:14:52;;;;;;;4.60;2.60;;;;;;;16.79;79.27;101954.53;2627105;54;20115;-81
2021/08/22 21:17:22;;;;;;;4.70;3.50;;;;;;;17.12;78.03;101944.56;2626316;47;20162;-78
2021/08/22 21:19:49;;;;;;;5.87;3.80;;;;;;;16.98;78.45;101949.59;2625843;46;20136;-81
2021/08/22 21:22:25;;;;;;;4.40;3.10;;;;;;;16.89;78.50;101954.69;2626057;47;20712;-81
2021/08/22 21:24:50;;;;;;;4.87;3.30;;;;;;;16.76;79.05;101959.69;2626084;47;20132;-80
2021/08/22 21:27:16;;;;;;;3.53;3.10;;;;;;;16.65;79.73;101958.69;2625657;47;20142;-78
2021/08/22 21:29:41;;;;;;;4.53;3.63;;;;;;;16.79;79.15;101960.59;2626492;47;20134;-80
2021/08/22 21:32:06;;;;;;;3.87;3.37;;;;;;;16.65;79.27;101959.56;2627126;54;20132;-81
2021/08/22 21:34:34;;;;;;;4.70;3.37;;;;;;;16.66;79.41;101966.47;2627404;54;20192;-81